sensor_id;sensor_type;location;lat;lon;timestamp;P1;durP1;ratioP1;P2;durP2;ratioP2
14665;SDS011;7420;53.574;10.040;2023-09-08T00:00:14;3.97;;;3.88;;
14665;SDS011;7420;53.574;10.040;2023-09-08T00:02:40;4.00;;;3.90;;
14665;SDS011;7420;53.574;10.040;2023-09-08T00:05:05;3.90;;;3.80;;
14665;SDS011;7420;53.574;10.040;2023-09-08T00:07:31;3.70;;;3.60;;
14665;SDS011;7420;53.574;10.040;2023-09-08T00:09:56;3.90;;;3.80;;
14665;SDS011;7420;53.574;10.040;2023-09-08T00:12:21;3.90;;;3.80;;
14665;SDS011;7420;53.574;10.040;2023-09-08T00:14:47;4.30;;;4.10;;
14665;SDS011;7420;53.574;10.040;2023-09-08T00:17:12;4.00;;;3.90;;
14665;SDS011;7420;53.574;10.040;2023-09-08T00:19:37;3.90;;;3.80;;
14665;SDS011;7420;53.574;10.040;2023-09-08T00:22:03;4.00;;;3.90;;
14665;SDS011;7420;53.574;10.040;2023-09-08T00:24:31;4.20;;;4.00;;
14665;SDS011;7420;53.574;10.040;2023-09-08T00:26:56;4.30;;;4.10;;
14665;SDS011;7420;53.574;10.040;2023-09-08T00:29:41;4.10;;;4.00;;
14665;SDS011;7420;53.574;10.040;2023-09-08T00:32:07;4.00;;;3.90;;
14665;SDS011;7420;53.574;10.040;2023-09-08T00:34:32;4.20;;;4.00;;
14665;SDS011;7420;53.574;10.040;2023-09-08T00:36:57;4.00;;;3.90;;
14665;SDS011;7420;53.574;10.040;2023-09-08T00:39:23;4.30;;;4.10;;
14665;SDS011;7420;53.574;10.040;2023-09-08T00:41:48;4.20;;;4.00;;
14665;SDS011;7420;53.574;10.040;2023-09-08T00:44:13;4.00;;;3.90;;
14665;SDS011;7420;53.574;10.040;2023-09-08T00:46:39;4.20;;;4.00;;
14665;SDS011;7420;53.574;10.040;2023-09-08T00:49:05;4.20;;;4.00;;
14665;SDS011;7420;53.574;10.040;2023-09-08T00:51:31;4.50;;;4.30;;
14665;SDS011;7420;53.574;10.040;2023-09-08T00:53:56;4.20;;;4.00;;
14665;SDS011;7420;53.574;10.040;2023-09-08T00:56:22;4.30;;;4.10;;
14665;SDS011;7420;53.574;10.040;2023-09-08T00:58:48;4.18;;;4.00;;
14665;SDS011;7420;53.574;10.040;2023-09-08T01:01:14;4.10;;;4.00;;
14665;SDS011;7420;53.574;10.040;2023-09-08T01:03:42;4.00;;;3.90;;
14665;SDS011;7420;53.574;10.040;2023-09-08T01:06:08;4.20;;;4.00;;
14665;SDS011;7420;53.574;10.040;2023-09-08T01:08:34;4.10;;;4.00;;
14665;SDS011;7420;53.574;10.040;2023-09-08T01:11:00;4.07;;;3.97;;
14665;SDS011;7420;53.574;10.040;2023-09-08T01:13:26;4.20;;;4.00;;
14665;SDS011;7420;53.574;10.040;2023-09-08T01:15:51;4.20;;;4.00;;
14665;SDS011;7420;53.574;10.040;2023-09-08T01:18:16;4.20;;;4.00;;
14665;SDS011;7420;53.574;10.040;2023-09-08T01:23:30;4.20;;;4.00;;
14665;SDS011;7420;53.574;10.040;2023-09-08T01:26:08;4.18;;;4.00;;
14665;SDS011;7420;53.574;10.040;2023-09-08T01:28:38;4.30;;;4.10;;
14665;SDS011;7420;53.574;10.040;2023-09-08T01:31:05;4.00;;;3.90;;
14665;SDS011;7420;53.574;10.040;2023-09-08T01:33:31;4.20;;;4.00;;
14665;SDS011;7420;53.574;10.040;2023-09-08T01:35:56;4.18;;;4.00;;
14665;SDS011;7420;53.574;10.040;2023-09-08T01:38:23;4.35;;;4.15;;
14665;SDS011;7420;53.574;10.040;2023-09-08T01:40:49;4.00;;;3.90;;
14665;SDS011;7420;53.574;10.040;2023-09-08T01:43:14;4.30;;;4.10;;
14665;SDS011;7420;53.574;10.040;2023-09-08T01:45:40;4.30;;;4.10;;
14665;SDS011;7420;53.574;10.040;2023-09-08T01:48:05;4.18;;;4.00;;
14665;SDS011;7420;53.574;10.040;2023-09-08T01:50:51;4.20;;;4.00;;
14665;SDS011;7420;53.574;10.040;2023-09-08T01:53:16;4.20;;;4.00;;
14665;SDS011;7420;53.574;10.040;2023-09-08T01:55:42;4.20;;;4.00;;
14665;SDS011;7420;53.574;10.040;2023-09-08T01:58:07;4.00;;;3.90;;
14665;SDS011;7420;53.574;10.040;2023-09-08T02:00:32;4.32;;;4.13;;
14665;SDS011;7420;53.574;10.040;2023-09-08T02:02:58;4.20;;;4.00;;
14665;SDS011;7420;53.574;10.040;2023-09-08T02:05:23;4.20;;;4.00;;
14665;SDS011;7420;53.574;10.040;2023-09-08T02:07:50;4.30;;;4.10;;
14665;SDS011;7420;53.574;10.040;2023-09-08T02:10:16;4.20;;;4.00;;
14665;SDS011;7420;53.574;10.040;2023-09-08T02:12:41;4.20;;;4.00;;
14665;SDS011;7420;53.574;10.040;2023-09-08T02:15:06;4.30;;;4.10;;
14665;SDS011;7420;53.574;10.040;2023-09-08T02:17:32;4.38;;;4.18;;
14665;SDS011;7420;53.574;10.040;2023-09-08T02:19:58;4.50;;;4.30;;
14665;SDS011;7420;53.574;10.040;2023-09-08T02:22:23;4.40;;;4.20;;
14665;SDS011;7420;53.574;10.040;2023-09-08T02:24:48;4.30;;;4.10;;
14665;SDS011;7420;53.574;10.040;2023-09-08T02:27:14;4.30;;;4.10;;
14665;SDS011;7420;53.574;10.040;2023-09-08T02:29:39;4.30;;;4.10;;
14665;SDS011;7420;53.574;10.040;2023-09-08T02:32:04;4.20;;;4.00;;
14665;SDS011;7420;53.574;10.040;2023-09-08T02:34:30;4.20;;;4.00;;
14665;SDS011;7420;53.574;10.040;2023-09-08T02:36:58;4.22;;;4.03;;
14665;SDS011;7420;53.574;10.040;2023-09-08T02:39:23;4.10;;;4.00;;
14665;SDS011;7420;53.574;10.040;2023-09-08T02:41:51;4.30;;;4.10;;
14665;SDS011;7420;53.574;10.040;2023-09-08T02:44:19;4.30;;;4.10;;
14665;SDS011;7420;53.574;10.040;2023-09-08T02:46:46;4.30;;;4.10;;
14665;SDS011;7420;53.574;10.040;2023-09-08T02:49:12;4.30;;;4.10;;
14665;SDS011;7420;53.574;10.040;2023-09-08T02:51:37;4.50;;;4.30;;
14665;SDS011;7420;53.574;10.040;2023-09-08T02:54:03;4.63;;;4.43;;
14665;SDS011;7420;53.574;10.040;2023-09-08T02:56:28;4.30;;;4.10;;
14665;SDS011;7420;53.574;10.040;2023-09-08T02:58:53;4.20;;;4.00;;
14665;SDS011;7420;53.574;10.040;2023-09-08T03:01:19;4.53;;;4.32;;
14665;SDS011;7420;53.574;10.040;2023-09-08T03:03:45;4.30;;;4.10;;
14665;SDS011;7420;53.574;10.040;2023-09-08T03:06:12;4.30;;;4.10;;
14665;SDS011;7420;53.574;10.040;2023-09-08T03:08:38;4.35;;;4.15;;
14665;SDS011;7420;53.574;10.040;2023-09-08T03:11:04;4.30;;;4.10;;
14665;SDS011;7420;53.574;10.040;2023-09-08T03:13:33;4.30;;;4.10;;
14665;SDS011;7420;53.574;10.040;2023-09-08T03:16:02;4.40;;;4.20;;
14665;SDS011;7420;53.574;10.040;2023-09-08T03:18:34;4.47;;;4.28;;
14665;SDS011;7420;53.574;10.040;2023-09-08T03:21:01;4.30;;;4.10;;
14665;SDS011;7420;53.574;10.040;2023-09-08T03:23:33;4.40;;;4.20;;
14665;SDS011;7420;53.574;10.040;2023-09-08T03:26:02;4.40;;;4.20;;
14665;SDS011;7420;53.574;10.040;2023-09-08T03:28:28;4.40;;;4.20;;
14665;SDS011;7420;53.574;10.040;2023-09-08T03:30:53;4.40;;;4.20;;
14665;SDS011;7420;53.574;10.040;2023-09-08T03:33:18;4.45;;;4.25;;
14665;SDS011;7420;53.574;10.040;2023-09-08T03:35:44;4.43;;;4.22;;
14665;SDS011;7420;53.574;10.040;2023-09-08T03:38:09;4.30;;;4.10;;
14665;SDS011;7420;53.574;10.040;2023-09-08T03:40:34;4.30;;;4.10;;
14665;SDS011;7420;53.574;10.040;2023-09-08T03:43:00;4.32;;;4.13;;
14665;SDS011;7420;53.574;10.040;2023-09-08T03:45:25;4.30;;;4.10;;
14665;SDS011;7420;53.574;10.040;2023-09-08T03:47:50;4.47;;;4.28;;
14665;SDS011;7420;53.574;10.040;2023-09-08T03:50:16;4.65;;;4.45;;
14665;SDS011;7420;53.574;10.040;2023-09-08T03:52:41;4.50;;;4.30;;
14665;SDS011;7420;53.574;10.040;2023-09-08T03:55:07;4.40;;;4.20;;
14665;SDS011;7420;53.574;10.040;2023-09-08T03:57:32;4.40;;;4.20;;
14665;SDS011;7420;53.574;10.040;2023-09-08T03:59:57;4.50;;;4.30;;
14665;SDS011;7420;53.574;10.040;2023-09-08T04:02:23;4.47;;;4.28;;
14665;SDS011;7420;53.574;10.040;2023-09-08T04:04:48;4.50;;;4.30;;
14665;SDS011;7420;53.574;10.040;2023-09-08T04:07:13;4.50;;;4.30;;
14665;SDS011;7420;53.574;10.040;2023-09-08T04:09:38;4.65;;;4.45;;
14665;SDS011;7420;53.574;10.040;2023-09-08T04:12:04;4.40;;;4.20;;
14665;SDS011;7420;53.574;10.040;2023-09-08T04:14:30;4.70;;;4.50;;
14665;SDS011;7420;53.574;10.040;2023-09-08T04:16:58;4.40;;;4.20;;
14665;SDS011;7420;53.574;10.040;2023-09-08T04:19:23;4.70;;;4.50;;
14665;SDS011;7420;53.574;10.040;2023-09-08T04:21:48;4.50;;;4.30;;
14665;SDS011;7420;53.574;10.040;2023-09-08T04:24:14;4.50;;;4.30;;
14665;SDS011;7420;53.574;10.040;2023-09-08T04:26:39;4.50;;;4.30;;
14665;SDS011;7420;53.574;10.040;2023-09-08T04:29:04;4.50;;;4.30;;
14665;SDS011;7420;53.574;10.040;2023-09-08T04:31:29;4.75;;;4.55;;
14665;SDS011;7420;53.574;10.040;2023-09-08T04:33:55;4.50;;;4.30;;
14665;SDS011;7420;53.574;10.040;2023-09-08T04:36:20;4.50;;;4.30;;
14665;SDS011;7420;53.574;10.040;2023-09-08T04:38:45;4.60;;;4.40;;
14665;SDS011;7420;53.574;10.040;2023-09-08T04:41:11;4.60;;;4.40;;
14665;SDS011;7420;53.574;10.040;2023-09-08T04:43:37;4.53;;;4.32;;
14665;SDS011;7420;53.574;10.040;2023-09-08T04:46:02;4.40;;;4.20;;
14665;SDS011;7420;53.574;10.040;2023-09-08T04:48:28;4.70;;;4.50;;
14665;SDS011;7420;53.574;10.040;2023-09-08T04:50:54;4.50;;;4.30;;
14665;SDS011;7420;53.574;10.040;2023-09-08T04:53:19;4.53;;;4.32;;
14665;SDS011;7420;53.574;10.040;2023-09-08T04:55:45;4.40;;;4.20;;
14665;SDS011;7420;53.574;10.040;2023-09-08T04:58:10;4.63;;;4.43;;
14665;SDS011;7420;53.574;10.040;2023-09-08T05:00:37;4.30;;;4.10;;
14665;SDS011;7420;53.574;10.040;2023-09-08T05:03:03;4.40;;;4.20;;
14665;SDS011;7420;53.574;10.040;2023-09-08T05:05:29;4.40;;;4.20;;
14665;SDS011;7420;53.574;10.040;2023-09-08T05:07:54;4.50;;;4.30;;
14665;SDS011;7420;53.574;10.040;2023-09-08T05:10:22;4.60;;;4.40;;
14665;SDS011;7420;53.574;10.040;2023-09-08T05:12:47;4.50;;;4.30;;
14665;SDS011;7420;53.574;10.040;2023-09-08T05:15:14;4.50;;;4.30;;
14665;SDS011;7420;53.574;10.040;2023-09-08T05:17:41;4.55;;;4.35;;
14665;SDS011;7420;53.574;10.040;2023-09-08T05:20:06;4.45;;;4.25;;
14665;SDS011;7420;53.574;10.040;2023-09-08T05:22:32;4.63;;;4.43;;
14665;SDS011;7420;53.574;10.040;2023-09-08T05:24:58;4.60;;;4.40;;
14665;SDS011;7420;53.574;10.040;2023-09-08T05:27:23;4.60;;;4.40;;
14665;SDS011;7420;53.574;10.040;2023-09-08T05:29:49;4.47;;;4.28;;
14665;SDS011;7420;53.574;10.040;2023-09-08T05:32:14;4.50;;;4.30;;
14665;SDS011;7420;53.574;10.040;2023-09-08T05:34:39;4.43;;;4.22;;
14665;SDS011;7420;53.574;10.040;2023-09-08T05:37:05;4.60;;;4.40;;
14665;SDS011;7420;53.574;10.040;2023-09-08T05:39:30;4.70;;;4.50;;
14665;SDS011;7420;53.574;10.040;2023-09-08T05:41:56;4.50;;;4.30;;
14665;SDS011;7420;53.574;10.040;2023-09-08T05:44:21;4.50;;;4.30;;
14665;SDS011;7420;53.574;10.040;2023-09-08T05:46:47;4.50;;;4.30;;
14665;SDS011;7420;53.574;10.040;2023-09-08T05:49:14;4.50;;;4.30;;
14665;SDS011;7420;53.574;10.040;2023-09-08T05:51:39;4.30;;;4.10;;
14665;SDS011;7420;53.574;10.040;2023-09-08T05:54:05;4.35;;;4.15;;
14665;SDS011;7420;53.574;10.040;2023-09-08T05:56:30;4.30;;;4.10;;
14665;SDS011;7420;53.574;10.040;2023-09-08T05:58:56;4.25;;;4.05;;
14665;SDS011;7420;53.574;10.040;2023-09-08T06:01:22;4.20;;;4.00;;
14665;SDS011;7420;53.574;10.040;2023-09-08T06:03:49;4.20;;;4.00;;
14665;SDS011;7420;53.574;10.040;2023-09-08T06:06:14;4.30;;;4.10;;
14665;SDS011;7420;53.574;10.040;2023-09-08T06:08:39;4.20;;;4.00;;
14665;SDS011;7420;53.574;10.040;2023-09-08T06:11:05;4.30;;;4.10;;
14665;SDS011;7420;53.574;10.040;2023-09-08T06:13:30;4.10;;;4.00;;
14665;SDS011;7420;53.574;10.040;2023-09-08T06:15:55;4.20;;;4.00;;
14665;SDS011;7420;53.574;10.040;2023-09-08T06:18:21;4.30;;;4.10;;
14665;SDS011;7420;53.574;10.040;2023-09-08T06:20:46;4.30;;;4.10;;
14665;SDS011;7420;53.574;10.040;2023-09-08T06:23:12;4.30;;;4.10;;
14665;SDS011;7420;53.574;10.040;2023-09-08T06:25:38;4.30;;;4.10;;
14665;SDS011;7420;53.574;10.040;2023-09-08T06:28:04;4.00;;;3.90;;
14665;SDS011;7420;53.574;10.040;2023-09-08T06:30:29;4.03;;;3.92;;
14665;SDS011;7420;53.574;10.040;2023-09-08T06:32:55;4.35;;;4.15;;
14665;SDS011;7420;53.574;10.040;2023-09-08T06:35:20;4.00;;;3.90;;
14665;SDS011;7420;53.574;10.040;2023-09-08T06:37:46;4.20;;;4.00;;
14665;SDS011;7420;53.574;10.040;2023-09-08T06:40:11;4.20;;;4.00;;
14665;SDS011;7420;53.574;10.040;2023-09-08T06:42:36;4.00;;;3.90;;
14665;SDS011;7420;53.574;10.040;2023-09-08T06:45:04;4.30;;;4.10;;
14665;SDS011;7420;53.574;10.040;2023-09-08T06:47:30;4.15;;;4.00;;
14665;SDS011;7420;53.574;10.040;2023-09-08T06:49:55;4.30;;;4.10;;
14665;SDS011;7420;53.574;10.040;2023-09-08T06:52:21;4.07;;;3.97;;
14665;SDS011;7420;53.574;10.040;2023-09-08T06:54:46;4.00;;;3.90;;
14665;SDS011;7420;53.574;10.040;2023-09-08T06:57:12;4.30;;;4.10;;
14665;SDS011;7420;53.574;10.040;2023-09-08T06:59:38;4.25;;;4.05;;
14665;SDS011;7420;53.574;10.040;2023-09-08T07:02:03;4.00;;;3.90;;
14665;SDS011;7420;53.574;10.040;2023-09-08T07:04:29;4.15;;;4.00;;
14665;SDS011;7420;53.574;10.040;2023-09-08T07:06:55;3.90;;;3.80;;
14665;SDS011;7420;53.574;10.040;2023-09-08T07:09:20;3.95;;;3.85;;
14665;SDS011;7420;53.574;10.040;2023-09-08T07:11:45;4.20;;;4.00;;
14665;SDS011;7420;53.574;10.040;2023-09-08T07:14:11;3.92;;;3.83;;
14665;SDS011;7420;53.574;10.040;2023-09-08T07:16:37;3.80;;;3.70;;
14665;SDS011;7420;53.574;10.040;2023-09-08T07:19:02;3.80;;;3.70;;
14665;SDS011;7420;53.574;10.040;2023-09-08T07:21:28;4.00;;;3.90;;
14665;SDS011;7420;53.574;10.040;2023-09-08T07:23:53;3.80;;;3.70;;
14665;SDS011;7420;53.574;10.040;2023-09-08T07:26:21;3.80;;;3.70;;
14665;SDS011;7420;53.574;10.040;2023-09-08T07:28:46;3.70;;;3.60;;
14665;SDS011;7420;53.574;10.040;2023-09-08T07:31:12;3.70;;;3.60;;
14665;SDS011;7420;53.574;10.040;2023-09-08T07:33:38;3.70;;;3.60;;
14665;SDS011;7420;53.574;10.040;2023-09-08T07:36:07;3.80;;;3.70;;
14665;SDS011;7420;53.574;10.040;2023-09-08T07:38:33;3.70;;;3.60;;
14665;SDS011;7420;53.574;10.040;2023-09-08T07:41:01;3.72;;;3.63;;
14665;SDS011;7420;53.574;10.040;2023-09-08T07:43:27;3.67;;;3.58;;
14665;SDS011;7420;53.574;10.040;2023-09-08T07:45:53;3.63;;;3.53;;
14665;SDS011;7420;53.574;10.040;2023-09-08T07:48:18;3.80;;;3.70;;
14665;SDS011;7420;53.574;10.040;2023-09-08T07:50:43;3.70;;;3.60;;
14665;SDS011;7420;53.574;10.040;2023-09-08T07:53:09;3.60;;;3.50;;
14665;SDS011;7420;53.574;10.040;2023-09-08T07:55:35;3.67;;;3.58;;
14665;SDS011;7420;53.574;10.040;2023-09-08T07:58:01;3.60;;;3.50;;
14665;SDS011;7420;53.574;10.040;2023-09-08T08:00:28;3.70;;;3.60;;
14665;SDS011;7420;53.574;10.040;2023-09-08T08:02:54;3.60;;;3.50;;
14665;SDS011;7420;53.574;10.040;2023-09-08T08:05:21;3.70;;;3.60;;
14665;SDS011;7420;53.574;10.040;2023-09-08T08:07:46;3.60;;;3.50;;
14665;SDS011;7420;53.574;10.040;2023-09-08T08:10:12;3.67;;;3.58;;
14665;SDS011;7420;53.574;10.040;2023-09-08T08:12:41;3.60;;;3.50;;
14665;SDS011;7420;53.574;10.040;2023-09-08T08:15:07;3.60;;;3.50;;
14665;SDS011;7420;53.574;10.040;2023-09-08T08:17:35;3.60;;;3.50;;
14665;SDS011;7420;53.574;10.040;2023-09-08T08:20:01;3.60;;;3.50;;
14665;SDS011;7420;53.574;10.040;2023-09-08T08:22:42;3.60;;;3.50;;
14665;SDS011;7420;53.574;10.040;2023-09-08T08:25:07;3.53;;;3.42;;
14665;SDS011;7420;53.574;10.040;2023-09-08T08:27:33;3.60;;;3.50;;
14665;SDS011;7420;53.574;10.040;2023-09-08T08:29:58;3.50;;;3.40;;
14665;SDS011;7420;53.574;10.040;2023-09-08T08:32:26;3.58;;;3.47;;
14665;SDS011;7420;53.574;10.040;2023-09-08T08:34:52;3.60;;;3.50;;
14665;SDS011;7420;53.574;10.040;2023-09-08T08:37:17;3.50;;;3.40;;
14665;SDS011;7420;53.574;10.040;2023-09-08T08:39:43;3.58;;;3.47;;
14665;SDS011;7420;53.574;10.040;2023-09-08T08:42:09;3.40;;;3.30;;
14665;SDS011;7420;53.574;10.040;2023-09-08T08:44:36;3.40;;;3.30;;
14665;SDS011;7420;53.574;10.040;2023-09-08T08:47:03;3.50;;;3.40;;
14665;SDS011;7420;53.574;10.040;2023-09-08T08:49:31;3.50;;;3.40;;
14665;SDS011;7420;53.574;10.040;2023-09-08T08:51:58;3.40;;;3.30;;
14665;SDS011;7420;53.574;10.040;2023-09-08T08:54:24;3.40;;;3.30;;
14665;SDS011;7420;53.574;10.040;2023-09-08T08:56:50;3.40;;;3.30;;
14665;SDS011;7420;53.574;10.040;2023-09-08T08:59:15;3.60;;;3.50;;
14665;SDS011;7420;53.574;10.040;2023-09-08T09:01:42;3.50;;;3.40;;
14665;SDS011;7420;53.574;10.040;2023-09-08T09:04:08;3.40;;;3.30;;
14665;SDS011;7420;53.574;10.040;2023-09-08T09:06:35;3.50;;;3.40;;
14665;SDS011;7420;53.574;10.040;2023-09-08T09:09:00;3.50;;;3.40;;
14665;SDS011;7420;53.574;10.040;2023-09-08T09:11:26;3.40;;;3.30;;
14665;SDS011;7420;53.574;10.040;2023-09-08T09:13:52;3.40;;;3.30;;
14665;SDS011;7420;53.574;10.040;2023-09-08T09:16:17;3.40;;;3.30;;
14665;SDS011;7420;53.574;10.040;2023-09-08T09:21:22;3.50;;;3.40;;
14665;SDS011;7420;53.574;10.040;2023-09-08T09:23:47;3.40;;;3.30;;
14665;SDS011;7420;53.574;10.040;2023-09-08T09:26:23;3.40;;;3.30;;
14665;SDS011;7420;53.574;10.040;2023-09-08T09:28:50;3.50;;;3.40;;
14665;SDS011;7420;53.574;10.040;2023-09-08T09:31:17;3.50;;;3.40;;
14665;SDS011;7420;53.574;10.040;2023-09-08T09:33:43;3.40;;;3.30;;
14665;SDS011;7420;53.574;10.040;2023-09-08T09:36:09;3.40;;;3.30;;
14665;SDS011;7420;53.574;10.040;2023-09-08T09:38:34;3.30;;;3.20;;
14665;SDS011;7420;53.574;10.040;2023-09-08T09:41:00;3.22;;;3.13;;
14665;SDS011;7420;53.574;10.040;2023-09-08T09:43:25;3.20;;;3.10;;
14665;SDS011;7420;53.574;10.040;2023-09-08T09:45:53;3.30;;;3.20;;
14665;SDS011;7420;53.574;10.040;2023-09-08T09:48:19;3.35;;;3.25;;
14665;SDS011;7420;53.574;10.040;2023-09-08T09:50:46;3.40;;;3.30;;
14665;SDS011;7420;53.574;10.040;2023-09-08T09:53:12;3.50;;;3.40;;
14665;SDS011;7420;53.574;10.040;2023-09-08T09:55:38;3.40;;;3.30;;
14665;SDS011;7420;53.574;10.040;2023-09-08T09:58:05;3.40;;;3.30;;
14665;SDS011;7420;53.574;10.040;2023-09-08T10:00:32;3.40;;;3.30;;
14665;SDS011;7420;53.574;10.040;2023-09-08T10:02:59;3.30;;;3.20;;
14665;SDS011;7420;53.574;10.040;2023-09-08T10:05:25;3.40;;;3.30;;
14665;SDS011;7420;53.574;10.040;2023-09-08T10:07:51;3.40;;;3.30;;
14665;SDS011;7420;53.574;10.040;2023-09-08T10:10:17;3.33;;;3.22;;
14665;SDS011;7420;53.574;10.040;2023-09-08T10:12:46;3.40;;;3.30;;
14665;SDS011;7420;53.574;10.040;2023-09-08T10:15:18;3.30;;;3.20;;
14665;SDS011;7420;53.574;10.040;2023-09-08T10:17:46;3.20;;;3.10;;
14665;SDS011;7420;53.574;10.040;2023-09-08T10:20:15;3.30;;;3.20;;
14665;SDS011;7420;53.574;10.040;2023-09-08T10:22:41;3.30;;;3.20;;
14665;SDS011;7420;53.574;10.040;2023-09-08T10:25:08;3.13;;;3.03;;
14665;SDS011;7420;53.574;10.040;2023-09-08T10:27:34;3.30;;;3.20;;
14665;SDS011;7420;53.574;10.040;2023-09-08T10:30:01;3.30;;;3.20;;
14665;SDS011;7420;53.574;10.040;2023-09-08T10:32:29;3.20;;;3.10;;
14665;SDS011;7420;53.574;10.040;2023-09-08T10:34:57;3.30;;;3.20;;
14665;SDS011;7420;53.574;10.040;2023-09-08T10:37:25;3.13;;;3.03;;
14665;SDS011;7420;53.574;10.040;2023-09-08T10:39:54;3.10;;;3.00;;
14665;SDS011;7420;53.574;10.040;2023-09-08T10:42:20;3.30;;;3.20;;
14665;SDS011;7420;53.574;10.040;2023-09-08T10:44:58;3.15;;;3.05;;
14665;SDS011;7420;53.574;10.040;2023-09-08T10:47:31;3.10;;;3.00;;
14665;SDS011;7420;53.574;10.040;2023-09-08T10:49:59;3.15;;;3.05;;
14665;SDS011;7420;53.574;10.040;2023-09-08T10:52:25;3.10;;;3.00;;
14665;SDS011;7420;53.574;10.040;2023-09-08T10:54:51;3.20;;;3.10;;
14665;SDS011;7420;53.574;10.040;2023-09-08T10:57:19;3.10;;;3.00;;
14665;SDS011;7420;53.574;10.040;2023-09-08T10:59:52;3.10;;;3.00;;
14665;SDS011;7420;53.574;10.040;2023-09-08T11:04:57;3.17;;;3.08;;
14665;SDS011;7420;53.574;10.040;2023-09-08T11:07:24;3.10;;;3.00;;
14665;SDS011;7420;53.574;10.040;2023-09-08T11:09:49;3.00;;;2.90;;
14665;SDS011;7420;53.574;10.040;2023-09-08T11:12:15;3.00;;;2.90;;
14665;SDS011;7420;53.574;10.040;2023-09-08T11:14:41;3.10;;;3.00;;
14665;SDS011;7420;53.574;10.040;2023-09-08T11:17:32;3.00;;;2.90;;
14665;SDS011;7420;53.574;10.040;2023-09-08T11:19:59;3.00;;;2.90;;
14665;SDS011;7420;53.574;10.040;2023-09-08T11:22:25;3.00;;;2.90;;
14665;SDS011;7420;53.574;10.040;2023-09-08T11:24:52;3.00;;;2.90;;
14665;SDS011;7420;53.574;10.040;2023-09-08T11:27:18;3.00;;;2.90;;
14665;SDS011;7420;53.574;10.040;2023-09-08T11:29:45;3.10;;;3.00;;
14665;SDS011;7420;53.574;10.040;2023-09-08T11:32:11;2.90;;;2.80;;
14665;SDS011;7420;53.574;10.040;2023-09-08T11:34:37;2.90;;;2.80;;
14665;SDS011;7420;53.574;10.040;2023-09-08T11:39:36;2.85;;;2.75;;
14665;SDS011;7420;53.574;10.040;2023-09-08T11:42:03;2.95;;;2.85;;
14665;SDS011;7420;53.574;10.040;2023-09-08T11:44:29;2.97;;;2.88;;
14665;SDS011;7420;53.574;10.040;2023-09-08T11:46:54;2.90;;;2.80;;
14665;SDS011;7420;53.574;10.040;2023-09-08T11:49:20;2.88;;;2.78;;
14665;SDS011;7420;53.574;10.040;2023-09-08T11:51:49;2.83;;;2.72;;
14665;SDS011;7420;53.574;10.040;2023-09-08T11:54:14;2.70;;;2.60;;
14665;SDS011;7420;53.574;10.040;2023-09-08T11:56:40;2.80;;;2.70;;
14665;SDS011;7420;53.574;10.040;2023-09-08T11:59:06;2.90;;;2.80;;
14665;SDS011;7420;53.574;10.040;2023-09-08T12:01:32;2.70;;;2.60;;
14665;SDS011;7420;53.574;10.040;2023-09-08T12:03:58;2.80;;;2.70;;
14665;SDS011;7420;53.574;10.040;2023-09-08T12:06:26;2.80;;;2.70;;
14665;SDS011;7420;53.574;10.040;2023-09-08T12:08:56;2.80;;;2.70;;
14665;SDS011;7420;53.574;10.040;2023-09-08T12:11:31;2.80;;;2.70;;
14665;SDS011;7420;53.574;10.040;2023-09-08T12:14:01;2.80;;;2.70;;
14665;SDS011;7420;53.574;10.040;2023-09-08T12:16:26;2.70;;;2.60;;
14665;SDS011;7420;53.574;10.040;2023-09-08T12:18:51;2.80;;;2.70;;
14665;SDS011;7420;53.574;10.040;2023-09-08T12:21:17;2.75;;;2.65;;
14665;SDS011;7420;53.574;10.040;2023-09-08T12:23:49;2.78;;;2.67;;
14665;SDS011;7420;53.574;10.040;2023-09-08T12:28:41;2.60;;;2.50;;
14665;SDS011;7420;53.574;10.040;2023-09-08T12:31:08;2.60;;;2.50;;
14665;SDS011;7420;53.574;10.040;2023-09-08T12:33:34;2.70;;;2.60;;
14665;SDS011;7420;53.574;10.040;2023-09-08T12:36:03;2.60;;;2.50;;
14665;SDS011;7420;53.574;10.040;2023-09-08T12:38:36;2.55;;;2.45;;
14665;SDS011;7420;53.574;10.040;2023-09-08T12:41:02;2.50;;;2.40;;
14665;SDS011;7420;53.574;10.040;2023-09-08T12:43:27;2.70;;;2.60;;
14665;SDS011;7420;53.574;10.040;2023-09-08T12:45:52;2.60;;;2.50;;
14665;SDS011;7420;53.574;10.040;2023-09-08T12:48:17;2.60;;;2.50;;
14665;SDS011;7420;53.574;10.040;2023-09-08T12:50:43;2.50;;;2.40;;
14665;SDS011;7420;53.574;10.040;2023-09-08T12:53:08;2.50;;;2.40;;
14665;SDS011;7420;53.574;10.040;2023-09-08T12:55:33;2.60;;;2.50;;
14665;SDS011;7420;53.574;10.040;2023-09-08T12:57:59;2.60;;;2.50;;
14665;SDS011;7420;53.574;10.040;2023-09-08T13:00:24;2.50;;;2.40;;
14665;SDS011;7420;53.574;10.040;2023-09-08T13:02:50;2.60;;;2.50;;
14665;SDS011;7420;53.574;10.040;2023-09-08T13:05:15;2.50;;;2.40;;
14665;SDS011;7420;53.574;10.040;2023-09-08T13:07:41;2.50;;;2.40;;
14665;SDS011;7420;53.574;10.040;2023-09-08T13:10:06;2.50;;;2.40;;
14665;SDS011;7420;53.574;10.040;2023-09-08T13:12:32;2.42;;;2.33;;
14665;SDS011;7420;53.574;10.040;2023-09-08T13:14:58;2.50;;;2.40;;
14665;SDS011;7420;53.574;10.040;2023-09-08T13:17:23;2.30;;;2.30;;
14665;SDS011;7420;53.574;10.040;2023-09-08T13:19:49;3.35;;;3.25;;
14665;SDS011;7420;53.574;10.040;2023-09-08T13:22:14;2.90;;;2.80;;
14665;SDS011;7420;53.574;10.040;2023-09-08T13:24:40;2.30;;;2.28;;
14665;SDS011;7420;53.574;10.040;2023-09-08T13:27:05;2.40;;;2.30;;
14665;SDS011;7420;53.574;10.040;2023-09-08T13:29:31;2.50;;;2.40;;
14665;SDS011;7420;53.574;10.040;2023-09-08T13:31:56;2.28;;;2.28;;
14665;SDS011;7420;53.574;10.040;2023-09-08T13:34:22;2.38;;;2.30;;
14665;SDS011;7420;53.574;10.040;2023-09-08T13:36:48;2.50;;;2.40;;
14665;SDS011;7420;53.574;10.040;2023-09-08T13:39:13;2.45;;;2.35;;
14665;SDS011;7420;53.574;10.040;2023-09-08T13:44:11;2.20;;;2.20;;
14665;SDS011;7420;53.574;10.040;2023-09-08T13:46:37;2.50;;;2.40;;
14665;SDS011;7420;53.574;10.040;2023-09-08T13:49:02;2.50;;;2.40;;
14665;SDS011;7420;53.574;10.040;2023-09-08T13:51:28;2.50;;;2.40;;
14665;SDS011;7420;53.574;10.040;2023-09-08T13:54:16;2.38;;;2.30;;
14665;SDS011;7420;53.574;10.040;2023-09-08T13:56:41;2.40;;;2.30;;
14665;SDS011;7420;53.574;10.040;2023-09-08T13:59:07;2.28;;;2.28;;
14665;SDS011;7420;53.574;10.040;2023-09-08T14:01:33;2.40;;;2.30;;
14665;SDS011;7420;53.574;10.040;2023-09-08T14:04:00;2.30;;;2.30;;
14665;SDS011;7420;53.574;10.040;2023-09-08T14:06:26;2.40;;;2.30;;
14665;SDS011;7420;53.574;10.040;2023-09-08T14:08:52;2.30;;;2.30;;
14665;SDS011;7420;53.574;10.040;2023-09-08T14:11:17;2.40;;;2.30;;
14665;SDS011;7420;53.574;10.040;2023-09-08T14:13:43;2.20;;;2.20;;
14665;SDS011;7420;53.574;10.040;2023-09-08T14:16:08;2.42;;;2.33;;
14665;SDS011;7420;53.574;10.040;2023-09-08T14:18:34;2.40;;;2.30;;
14665;SDS011;7420;53.574;10.040;2023-09-08T14:20:59;2.28;;;2.28;;
14665;SDS011;7420;53.574;10.040;2023-09-08T14:23:25;2.20;;;2.20;;
14665;SDS011;7420;53.574;10.040;2023-09-08T14:25:51;2.10;;;2.10;;
14665;SDS011;7420;53.574;10.040;2023-09-08T14:28:17;2.20;;;2.20;;
14665;SDS011;7420;53.574;10.040;2023-09-08T14:30:42;2.22;;;2.22;;
14665;SDS011;7420;53.574;10.040;2023-09-08T14:33:10;2.20;;;2.20;;
14665;SDS011;7420;53.574;10.040;2023-09-08T14:35:35;2.15;;;2.15;;
14665;SDS011;7420;53.574;10.040;2023-09-08T14:38:05;2.20;;;2.20;;
14665;SDS011;7420;53.574;10.040;2023-09-08T14:40:31;2.10;;;2.10;;
14665;SDS011;7420;53.574;10.040;2023-09-08T14:42:56;2.10;;;2.10;;
14665;SDS011;7420;53.574;10.040;2023-09-08T14:45:22;2.10;;;2.10;;
14665;SDS011;7420;53.574;10.040;2023-09-08T14:47:47;2.20;;;2.20;;
14665;SDS011;7420;53.574;10.040;2023-09-08T14:50:12;2.10;;;2.10;;
14665;SDS011;7420;53.574;10.040;2023-09-08T14:52:38;2.00;;;2.00;;
14665;SDS011;7420;53.574;10.040;2023-09-08T14:55:06;1.85;;;1.85;;
14665;SDS011;7420;53.574;10.040;2023-09-08T14:57:32;1.80;;;1.80;;